sensor_id;sensor_type;location;lat;lon;timestamp;pressure;altitude;pressure_sealevel;temperature;humidity
82672;BME280;72378;52.468;13.432;2024-03-25T00:02:18;99363.50;;;11.43;60.86
82672;BME280;72378;52.468;13.432;2024-03-25T00:04:44;99363.19;;;10.58;63.62
82672;BME280;72378;52.468;13.432;2024-03-25T00:07:10;99360.69;;;10.63;63.31
82672;BME280;72378;52.468;13.432;2024-03-25T00:09:36;99358.66;;;11.27;60.33
82672;BME280;72378;52.468;13.432;2024-03-25T00:12:02;99356.63;;;12.69;58.07
82672;BME280;72378;52.468;13.432;2024-03-25T00:14:29;99356.50;;;11.60;60.13
82672;BME280;72378;52.468;13.432;2024-03-25T00:16:56;99356.41;;;12.34;59.71
82672;BME280;72378;52.468;13.432;2024-03-25T00:19:23;99366.38;;;11.48;60.62
82672;BME280;72378;52.468;13.432;2024-03-25T00:21:49;99366.81;;;11.21;61.71
82672;BME280;72378;52.468;13.432;2024-03-25T00:24:15;99374.31;;;10.81;62.67
82672;BME280;72378;52.468;13.432;2024-03-25T00:26:41;99373.59;;;11.61;61.15
82672;BME280;72378;52.468;13.432;2024-03-25T00:29:07;99370.06;;;12.46;57.97
82672;BME280;72378;52.468;13.432;2024-03-25T00:31:33;99368.75;;;11.69;61.04
82672;BME280;72378;52.468;13.432;2024-03-25T00:33:59;99381.56;;;11.80;60.23
82672;BME280;72378;52.468;13.432;2024-03-25T00:36:26;99389.00;;;10.98;61.92
82672;BME280;72378;52.468;13.432;2024-03-25T00:38:52;99384.66;;;12.45;59.53
82672;BME280;72378;52.468;13.432;2024-03-25T00:41:20;99391.44;;;12.35;57.91
82672;BME280;72378;52.468;13.432;2024-03-25T00:43:45;99391.13;;;12.25;58.57
82672;BME280;72378;52.468;13.432;2024-03-25T00:46:12;99384.75;;;12.38;57.86
82672;BME280;72378;52.468;13.432;2024-03-25T00:48:37;99394.06;;;11.50;60.58
82672;BME280;72378;52.468;13.432;2024-03-25T00:51:04;99399.56;;;11.68;60.82
82672;BME280;72378;52.468;13.432;2024-03-25T00:53:30;99400.78;;;12.58;56.42
82672;BME280;72378;52.468;13.432;2024-03-25T00:55:57;99398.22;;;12.63;56.41
82672;BME280;72378;52.468;13.432;2024-03-25T00:58:22;99395.03;;;11.31;62.09
82672;BME280;72378;52.468;13.432;2024-03-25T01:00:49;99398.53;;;10.63;63.33
82672;BME280;72378;52.468;13.432;2024-03-25T01:03:14;99404.91;;;11.19;62.70
82672;BME280;72378;52.468;13.432;2024-03-25T01:05:40;99404.56;;;11.09;61.89
82672;BME280;72378;52.468;13.432;2024-03-25T01:08:06;99400.94;;;12.45;58.12
82672;BME280;72378;52.468;13.432;2024-03-25T01:10:37;99406.19;;;12.21;59.02
82672;BME280;72378;52.468;13.432;2024-03-25T01:13:03;99404.59;;;10.58;63.25
82672;BME280;72378;52.468;13.432;2024-03-25T01:15:29;99413.88;;;10.69;63.64
82672;BME280;72378;52.468;13.432;2024-03-25T01:17:55;99410.28;;;10.88;62.31
82672;BME280;72378;52.468;13.432;2024-03-25T01:20:21;99415.03;;;10.99;62.03
82672;BME280;72378;52.468;13.432;2024-03-25T01:22:46;99409.13;;;11.08;62.42
82672;BME280;72378;52.468;13.432;2024-03-25T01:25:13;99420.69;;;12.09;58.92
82672;BME280;72378;52.468;13.432;2024-03-25T01:27:39;99416.56;;;12.24;59.14
82672;BME280;72378;52.468;13.432;2024-03-25T01:30:06;99417.94;;;11.60;59.79
82672;BME280;72378;52.468;13.432;2024-03-25T01:32:32;99416.84;;;11.43;60.00
82672;BME280;72378;52.468;13.432;2024-03-25T01:34:59;99413.38;;;12.52;58.23
82672;BME280;72378;52.468;13.432;2024-03-25T01:37:24;99416.75;;;12.29;57.71
82672;BME280;72378;52.468;13.432;2024-03-25T01:39:50;99422.69;;;12.38;58.20
82672;BME280;72378;52.468;13.432;2024-03-25T01:42:16;99423.19;;;10.22;64.74
82672;BME280;72378;52.468;13.432;2024-03-25T01:44:44;99431.44;;;10.40;64.09
82672;BME280;72378;52.468;13.432;2024-03-25T01:47:12;99423.19;;;10.86;64.02
82672;BME280;72378;52.468;13.432;2024-03-25T01:49:37;99428.38;;;10.87;62.68
82672;BME280;72378;52.468;13.432;2024-03-25T01:52:04;99432.50;;;9.54;65.46
82672;BME280;72378;52.468;13.432;2024-03-25T01:54:31;99434.16;;;10.34;63.50
82672;BME280;72378;52.468;13.432;2024-03-25T01:56:58;99436.44;;;10.30;62.96
82672;BME280;72378;52.468;13.432;2024-03-25T01:59:25;99438.28;;;10.49;62.18
82672;BME280;72378;52.468;13.432;2024-03-25T02:01:53;99434.41;;;10.13;63.34
82672;BME280;72378;52.468;13.432;2024-03-25T02:04:20;99452.03;;;9.76;64.49
82672;BME280;72378;52.468;13.432;2024-03-25T02:06:46;99454.16;;;10.90;61.39
82672;BME280;72378;52.468;13.432;2024-03-25T02:09:12;99447.16;;;10.69;62.32
82672;BME280;72378;52.468;13.432;2024-03-25T02:11:39;99458.94;;;10.18;63.05
82672;BME280;72378;52.468;13.432;2024-03-25T02:14:05;99451.97;;;10.61;60.06
82672;BME280;72378;52.468;13.432;2024-03-25T02:16:31;99457.97;;;11.58;58.14
82672;BME280;72378;52.468;13.432;2024-03-25T02:18:58;99456.34;;;11.19;59.45
82672;BME280;72378;52.468;13.432;2024-03-25T02:21:25;99466.59;;;11.04;60.14
82672;BME280;72378;52.468;13.432;2024-03-25T02:23:53;99466.56;;;10.47;61.58
82672;BME280;72378;52.468;13.432;2024-03-25T02:26:23;99466.84;;;10.89;61.73
82672;BME280;72378;52.468;13.432;2024-03-25T02:28:49;99470.28;;;10.59;62.98
82672;BME280;72378;52.468;13.432;2024-03-25T02:31:16;99464.09;;;11.09;60.26
82672;BME280;72378;52.468;13.432;2024-03-25T02:33:41;99464.88;;;11.85;59.54
82672;BME280;72378;52.468;13.432;2024-03-25T02:36:08;99479.19;;;10.72;63.70
82672;BME280;72378;52.468;13.432;2024-03-25T02:38:34;99467.38;;;11.86;59.25
82672;BME280;72378;52.468;13.432;2024-03-25T02:41:00;99471.38;;;10.38;63.86
82672;BME280;72378;52.468;13.432;2024-03-25T02:43:28;99472.78;;;11.11;61.85
82672;BME280;72378;52.468;13.432;2024-03-25T02:45:54;99479.88;;;10.55;63.95
82672;BME280;72378;52.468;13.432;2024-03-25T02:48:20;99479.88;;;10.55;63.84
82672;BME280;72378;52.468;13.432;2024-03-25T02:50:47;99485.91;;;9.98;66.17
82672;BME280;72378;52.468;13.432;2024-03-25T02:53:13;99481.75;;;9.95;66.80
82672;BME280;72378;52.468;13.432;2024-03-25T02:55:39;99485.00;;;10.76;64.73
82672;BME280;72378;52.468;13.432;2024-03-25T02:58:05;99476.94;;;10.56;64.56
82672;BME280;72378;52.468;13.432;2024-03-25T03:00:31;99483.81;;;10.46;64.40
82672;BME280;72378;52.468;13.432;2024-03-25T03:02:58;99489.22;;;10.07;64.71
82672;BME280;72378;52.468;13.432;2024-03-25T03:05:23;99497.97;;;10.22;65.24
82672;BME280;72378;52.468;13.432;2024-03-25T03:07:50;99506.69;;;9.98;66.27
82672;BME280;72378;52.468;13.432;2024-03-25T03:10:15;99519.31;;;11.77;60.19
82672;BME280;72378;52.468;13.432;2024-03-25T03:12:42;99519.69;;;12.11;59.44
82672;BME280;72378;52.468;13.432;2024-03-25T03:15:07;99517.09;;;11.67;58.85
82672;BME280;72378;52.468;13.432;2024-03-25T03:17:35;99522.75;;;11.08;61.60
82672;BME280;72378;52.468;13.432;2024-03-25T03:20:00;99521.81;;;10.83;61.73
82672;BME280;72378;52.468;13.432;2024-03-25T03:22:27;99527.38;;;9.51;66.13
82672;BME280;72378;52.468;13.432;2024-03-25T03:24:52;99524.25;;;10.98;62.27
82672;BME280;72378;52.468;13.432;2024-03-25T03:27:19;99532.44;;;10.78;62.63
82672;BME280;72378;52.468;13.432;2024-03-25T03:29:44;99537.91;;;10.20;64.91
82672;BME280;72378;52.468;13.432;2024-03-25T03:32:10;99540.81;;;10.25;63.75
82672;BME280;72378;52.468;13.432;2024-03-25T03:34:37;99537.91;;;10.26;63.42
82672;BME280;72378;52.468;13.432;2024-03-25T03:37:04;99541.06;;;11.13;59.88
82672;BME280;72378;52.468;13.432;2024-03-25T03:39:29;99545.69;;;10.93;61.64
82672;BME280;72378;52.468;13.432;2024-03-25T03:41:56;99551.78;;;10.75;61.96
82672;BME280;72378;52.468;13.432;2024-03-25T03:44:21;99546.38;;;10.56;62.38
82672;BME280;72378;52.468;13.432;2024-03-25T03:46:47;99549.94;;;10.37;63.05
82672;BME280;72378;52.468;13.432;2024-03-25T03:49:13;99560.44;;;11.03;60.81
82672;BME280;72378;52.468;13.432;2024-03-25T03:51:41;99564.84;;;9.80;65.95
82672;BME280;72378;52.468;13.432;2024-03-25T03:54:06;99568.34;;;9.74;64.87
82672;BME280;72378;52.468;13.432;2024-03-25T03:56:33;99573.22;;;10.44;63.17
82672;BME280;72378;52.468;13.432;2024-03-25T03:58:58;99570.03;;;10.93;61.91
82672;BME280;72378;52.468;13.432;2024-03-25T04:01:25;99574.41;;;11.00;61.02
82672;BME280;72378;52.468;13.432;2024-03-25T04:03:50;99568.84;;;11.40;61.34
82672;BME280;72378;52.468;13.432;2024-03-25T04:06:17;99588.69;;;9.17;67.47
82672;BME280;72378;52.468;13.432;2024-03-25T04:08:44;99584.75;;;9.73;65.61
82672;BME280;72378;52.468;13.432;2024-03-25T04:11:10;99575.72;;;10.33;63.89
82672;BME280;72378;52.468;13.432;2024-03-25T04:13:35;99592.91;;;11.67;61.28
82672;BME280;72378;52.468;13.432;2024-03-25T04:16:03;99596.88;;;10.88;62.32
82672;BME280;72378;52.468;13.432;2024-03-25T04:18:30;99584.59;;;10.01;64.34
82672;BME280;72378;52.468;13.432;2024-03-25T04:20:56;99596.66;;;10.96;63.05
82672;BME280;72378;52.468;13.432;2024-03-25T04:23:22;99600.38;;;12.41;58.26
82672;BME280;72378;52.468;13.432;2024-03-25T04:25:50;99603.13;;;12.03;58.75
82672;BME280;72378;52.468;13.432;2024-03-25T04:28:15;99618.19;;;11.92;59.20
82672;BME280;72378;52.468;13.432;2024-03-25T04:30:41;99611.03;;;10.96;61.91
82672;BME280;72378;52.468;13.432;2024-03-25T04:33:07;99620.63;;;10.40;64.22
82672;BME280;72378;52.468;13.432;2024-03-25T04:35:34;99621.03;;;10.31;65.97
82672;BME280;72378;52.468;13.432;2024-03-25T04:37:59;99615.00;;;10.16;65.61
82672;BME280;72378;52.468;13.432;2024-03-25T04:40:25;99614.97;;;10.94;63.36
82672;BME280;72378;52.468;13.432;2024-03-25T04:42:52;99634.75;;;10.23;64.61
82672;BME280;72378;52.468;13.432;2024-03-25T04:45:17;99634.56;;;10.57;63.63
82672;BME280;72378;52.468;13.432;2024-03-25T04:47:43;99635.59;;;10.95;63.31
82672;BME280;72378;52.468;13.432;2024-03-25T04:50:09;99637.25;;;10.44;64.62
82672;BME280;72378;52.468;13.432;2024-03-25T04:52:35;99637.28;;;10.70;62.93
82672;BME280;72378;52.468;13.432;2024-03-25T04:55:00;99639.25;;;11.90;61.08
82672;BME280;72378;52.468;13.432;2024-03-25T04:57:26;99646.78;;;10.14;63.30
82672;BME280;72378;52.468;13.432;2024-03-25T04:59:53;99648.69;;;10.98;63.01
82672;BME280;72378;52.468;13.432;2024-03-25T05:02:18;99653.81;;;12.33;59.49
82672;BME280;72378;52.468;13.432;2024-03-25T05:04:44;99654.69;;;11.13;63.51
82672;BME280;72378;52.468;13.432;2024-03-25T05:07:09;99660.91;;;12.59;57.79
82672;BME280;72378;52.468;13.432;2024-03-25T05:09:35;99663.44;;;11.15;60.96
82672;BME280;72378;52.468;13.432;2024-03-25T05:12:00;99666.56;;;10.47;64.77
82672;BME280;72378;52.468;13.432;2024-03-25T05:14:26;99674.88;;;10.39;63.39
82672;BME280;72378;52.468;13.432;2024-03-25T05:16:52;99671.50;;;11.35;61.85
82672;BME280;72378;52.468;13.432;2024-03-25T05:19:18;99674.28;;;10.56;65.05
82672;BME280;72378;52.468;13.432;2024-03-25T05:21:43;99680.41;;;11.61;60.73
82672;BME280;72378;52.468;13.432;2024-03-25T05:24:09;99679.69;;;11.02;62.48
82672;BME280;72378;52.468;13.432;2024-03-25T05:26:34;99684.47;;;10.48;63.10
82672;BME280;72378;52.468;13.432;2024-03-25T05:29:00;99693.34;;;10.22;64.10
82672;BME280;72378;52.468;13.432;2024-03-25T05:31:25;99689.63;;;10.30;64.23
82672;BME280;72378;52.468;13.432;2024-03-25T05:33:52;99694.25;;;9.88;65.71
82672;BME280;72378;52.468;13.432;2024-03-25T05:36:18;99699.38;;;10.18;65.52
82672;BME280;72378;52.468;13.432;2024-03-25T05:38:43;99712.59;;;10.99;61.67
82672;BME280;72378;52.468;13.432;2024-03-25T05:41:09;99712.09;;;11.54;60.39
82672;BME280;72378;52.468;13.432;2024-03-25T05:43:34;99713.09;;;11.53;61.09
82672;BME280;72378;52.468;13.432;2024-03-25T05:46:00;99709.22;;;11.23;60.67
82672;BME280;72378;52.468;13.432;2024-03-25T05:48:26;99707.72;;;11.66;59.72
82672;BME280;72378;52.468;13.432;2024-03-25T05:51:03;99720.03;;;10.84;63.32
82672;BME280;72378;52.468;13.432;2024-03-25T05:53:30;99722.13;;;11.34;62.04
82672;BME280;72378;52.468;13.432;2024-03-25T05:55:55;99720.22;;;12.56;58.50
82672;BME280;72378;52.468;13.432;2024-03-25T05:58:21;99719.16;;;12.19;58.10
82672;BME280;72378;52.468;13.432;2024-03-25T06:00:47;99727.31;;;11.09;61.67
82672;BME280;72378;52.468;13.432;2024-03-25T06:03:13;99727.66;;;10.28;64.43
82672;BME280;72378;52.468;13.432;2024-03-25T06:05:38;99735.31;;;10.18;65.70
82672;BME280;72378;52.468;13.432;2024-03-25T06:08:06;99737.72;;;11.12;62.37
82672;BME280;72378;52.468;13.432;2024-03-25T06:10:35;99741.03;;;10.69;63.31
82672;BME280;72378;52.468;13.432;2024-03-25T06:13:01;99743.38;;;10.91;62.99
82672;BME280;72378;52.468;13.432;2024-03-25T06:15:27;99744.63;;;12.11;58.20
82672;BME280;72378;52.468;13.432;2024-03-25T06:17:52;99757.09;;;10.77;62.08
82672;BME280;72378;52.468;13.432;2024-03-25T06:20:18;99754.19;;;10.91;62.94
82672;BME280;72378;52.468;13.432;2024-03-25T06:22:43;99759.56;;;10.72;63.51
82672;BME280;72378;52.468;13.432;2024-03-25T06:25:10;99766.53;;;10.27;63.40
82672;BME280;72378;52.468;13.432;2024-03-25T06:27:35;99764.16;;;10.71;63.58
82672;BME280;72378;52.468;13.432;2024-03-25T06:30:01;99771.25;;;10.92;62.45
82672;BME280;72378;52.468;13.432;2024-03-25T06:32:41;99778.94;;;11.41;60.92
82672;BME280;72378;52.468;13.432;2024-03-25T06:35:25;99781.44;;;11.03;62.54
82672;BME280;72378;52.468;13.432;2024-03-25T06:37:51;99785.84;;;11.17;61.83
82672;BME280;72378;52.468;13.432;2024-03-25T06:40:18;99783.06;;;10.65;62.83
82672;BME280;72378;52.468;13.432;2024-03-25T06:42:43;99788.16;;;10.40;63.62
82672;BME280;72378;52.468;13.432;2024-03-25T06:45:09;99793.28;;;10.16;64.56
82672;BME280;72378;52.468;13.432;2024-03-25T06:47:34;99799.88;;;10.60;62.85
82672;BME280;72378;52.468;13.432;2024-03-25T06:50:00;99801.00;;;11.70;60.09
82672;BME280;72378;52.468;13.432;2024-03-25T06:52:25;99804.97;;;11.29;59.84
82672;BME280;72378;52.468;13.432;2024-03-25T06:54:50;99815.16;;;11.07;61.02
82672;BME280;72378;52.468;13.432;2024-03-25T06:57:17;99810.56;;;11.01;62.21
82672;BME280;72378;52.468;13.432;2024-03-25T06:59:43;99814.03;;;10.69;63.46
82672;BME280;72378;52.468;13.432;2024-03-25T07:02:08;99818.72;;;11.40;61.03
82672;BME280;72378;52.468;13.432;2024-03-25T07:04:34;99819.66;;;12.17;59.21
82672;BME280;72378;52.468;13.432;2024-03-25T07:06:59;99826.56;;;12.00;58.67
82672;BME280;72378;52.468;13.432;2024-03-25T07:09:25;99838.31;;;11.29;60.13
82672;BME280;72378;52.468;13.432;2024-03-25T07:11:50;99832.19;;;12.18;57.93
82672;BME280;72378;52.468;13.432;2024-03-25T07:14:17;99841.75;;;10.84;62.61
82672;BME280;72378;52.468;13.432;2024-03-25T07:16:43;99849.63;;;10.72;63.21
82672;BME280;72378;52.468;13.432;2024-03-25T07:19:08;99856.13;;;10.84;64.08
82672;BME280;72378;52.468;13.432;2024-03-25T07:21:34;99862.56;;;10.83;63.31
82672;BME280;72378;52.468;13.432;2024-03-25T07:23:59;99870.69;;;9.74;66.15
82672;BME280;72378;52.468;13.432;2024-03-25T07:26:24;99866.56;;;11.07;63.44
82672;BME280;72378;52.468;13.432;2024-03-25T07:28:50;99869.91;;;11.09;62.57
82672;BME280;72378;52.468;13.432;2024-03-25T07:31:17;99874.47;;;11.02;63.70
82672;BME280;72378;52.468;13.432;2024-03-25T07:33:42;99866.38;;;11.41;61.24
82672;BME280;72378;52.468;13.432;2024-03-25T07:36:08;99872.00;;;11.07;61.87
82672;BME280;72378;52.468;13.432;2024-03-25T07:38:34;99875.78;;;11.32;62.32
82672;BME280;72378;52.468;13.432;2024-03-25T07:41:03;99875.72;;;10.99;63.98
82672;BME280;72378;52.468;13.432;2024-03-25T07:43:28;99881.84;;;9.65;65.43
82672;BME280;72378;52.468;13.432;2024-03-25T07:45:54;99894.41;;;10.88;63.54
82672;BME280;72378;52.468;13.432;2024-03-25T07:48:20;99889.16;;;11.73;60.31
82672;BME280;72378;52.468;13.432;2024-03-25T07:50:46;99896.31;;;10.47;63.86
82672;BME280;72378;52.468;13.432;2024-03-25T07:53:12;99904.91;;;11.17;62.12
82672;BME280;72378;52.468;13.432;2024-03-25T07:55:37;99909.59;;;10.89;63.10
82672;BME280;72378;52.468;13.432;2024-03-25T07:58:03;99915.75;;;11.30;64.58
82672;BME280;72378;52.468;13.432;2024-03-25T08:00:28;99911.06;;;10.10;64.87
82672;BME280;72378;52.468;13.432;2024-03-25T08:02:54;99904.97;;;10.29;64.34
82672;BME280;72378;52.468;13.432;2024-03-25T08:05:21;99914.97;;;10.82;64.59
82672;BME280;72378;52.468;13.432;2024-03-25T08:07:46;99920.50;;;10.55;63.63
82672;BME280;72378;52.468;13.432;2024-03-25T08:10:12;99921.75;;;10.65;63.85
82672;BME280;72378;52.468;13.432;2024-03-25T08:12:37;99914.44;;;9.63;65.55
82672;BME280;72378;52.468;13.432;2024-03-25T08:15:04;99918.28;;;11.51;62.31
82672;BME280;72378;52.468;13.432;2024-03-25T08:17:29;99917.13;;;11.00;62.25
82672;BME280;72378;52.468;13.432;2024-03-25T08:19:55;99920.59;;;11.74;60.01
82672;BME280;72378;52.468;13.432;2024-03-25T08:22:21;99928.66;;;11.35;62.07
82672;BME280;72378;52.468;13.432;2024-03-25T08:24:47;99934.50;;;11.38;60.57
82672;BME280;72378;52.468;13.432;2024-03-25T08:27:12;99935.31;;;11.19;60.83
82672;BME280;72378;52.468;13.432;2024-03-25T08:29:38;99941.91;;;11.03;64.25
82672;BME280;72378;52.468;13.432;2024-03-25T08:32:04;99939.91;;;12.56;58.92
82672;BME280;72378;52.468;13.432;2024-03-25T08:34:29;99951.88;;;10.96;62.07
82672;BME280;72378;52.468;13.432;2024-03-25T08:36:55;99948.50;;;11.61;61.05
82672;BME280;72378;52.468;13.432;2024-03-25T08:39:22;99954.06;;;11.27;62.54
82672;BME280;72378;52.468;13.432;2024-03-25T08:41:47;99958.84;;;12.62;57.76
82672;BME280;72378;52.468;13.432;2024-03-25T08:44:12;99961.00;;;12.27;60.52
82672;BME280;72378;52.468;13.432;2024-03-25T08:46:38;99969.50;;;11.46;61.46
82672;BME280;72378;52.468;13.432;2024-03-25T08:49:04;99961.88;;;12.92;57.65
82672;BME280;72378;52.468;13.432;2024-03-25T08:51:29;99963.97;;;14.27;53.17
82672;BME280;72378;52.468;13.432;2024-03-25T08:53:55;99972.75;;;11.09;61.96
82672;BME280;72378;52.468;13.432;2024-03-25T08:56:21;99981.09;;;11.21;62.20
82672;BME280;72378;52.468;13.432;2024-03-25T08:58:47;99978.75;;;12.23;58.74
82672;BME280;72378;52.468;13.432;2024-03-25T09:01:12;99972.47;;;11.97;59.87
82672;BME280;72378;52.468;13.432;2024-03-25T09:03:38;99977.97;;;11.17;60.05
82672;BME280;72378;52.468;13.432;2024-03-25T09:06:03;99975.81;;;11.66;59.86
82672;BME280;72378;52.468;13.432;2024-03-25T09:08:29;99976.97;;;12.75;56.30
82672;BME280;72378;52.468;13.432;2024-03-25T09:10:54;99981.66;;;12.28;58.10
82672;BME280;72378;52.468;13.432;2024-03-25T09:13:31;99989.97;;;12.20;58.76
82672;BME280;72378;52.468;13.432;2024-03-25T09:15:56;99985.19;;;11.83;58.41
82672;BME280;72378;52.468;13.432;2024-03-25T09:18:22;99994.47;;;11.35;60.75
82672;BME280;72378;52.468;13.432;2024-03-25T09:20:47;100002.94;;;12.18;58.66
82672;BME280;72378;52.468;13.432;2024-03-25T09:23:13;99999.53;;;12.49;56.36
82672;BME280;72378;52.468;13.432;2024-03-25T09:25:38;99999.25;;;12.83;55.84
82672;BME280;72378;52.468;13.432;2024-03-25T09:28:04;100008.94;;;13.99;52.01
82672;BME280;72378;52.468;13.432;2024-03-25T09:30:31;100013.31;;;13.31;54.90
82672;BME280;72378;52.468;13.432;2024-03-25T09:32:56;100012.94;;;11.98;57.23
82672;BME280;72378;52.468;13.432;2024-03-25T09:35:22;100014.38;;;12.47;57.69
82672;BME280;72378;52.468;13.432;2024-03-25T09:37:47;100004.59;;;11.93;57.22
82672;BME280;72378;52.468;13.432;2024-03-25T09:40:13;100015.97;;;11.02;58.47
82672;BME280;72378;52.468;13.432;2024-03-25T09:42:42;100023.31;;;11.75;58.20
82672;BME280;72378;52.468;13.432;2024-03-25T09:45:12;100019.56;;;12.74;54.43
82672;BME280;72378;52.468;13.432;2024-03-25T09:47:40;100018.53;;;11.90;58.24
82672;BME280;72378;52.468;13.432;2024-03-25T09:50:06;100024.44;;;11.34;58.96
82672;BME280;72378;52.468;13.432;2024-03-25T09:52:33;100031.81;;;12.83;55.23
82672;BME280;72378;52.468;13.432;2024-03-25T09:54:59;100031.38;;;13.06;54.90
82672;BME280;72378;52.468;13.432;2024-03-25T09:57:25;100029.53;;;11.56;59.33
82672;BME280;72378;52.468;13.432;2024-03-25T09:59:51;100038.53;;;12.74;56.13
82672;BME280;72378;52.468;13.432;2024-03-25T10:02:17;100030.81;;;14.35;51.95
82672;BME280;72378;52.468;13.432;2024-03-25T10:04:46;100040.13;;;12.95;54.92
82672;BME280;72378;52.468;13.432;2024-03-25T10:07:21;100041.09;;;14.57;50.78
82672;BME280;72378;52.468;13.432;2024-03-25T10:09:46;100034.69;;;15.90;47.46
82672;BME280;72378;52.468;13.432;2024-03-25T10:12:12;100036.59;;;14.45;49.47
82672;BME280;72378;52.468;13.432;2024-03-25T10:14:39;100041.69;;;12.52;54.34
82672;BME280;72378;52.468;13.432;2024-03-25T10:17:05;100044.34;;;13.54;52.83
82672;BME280;72378;52.468;13.432;2024-03-25T10:19:30;100037.97;;;12.26;55.25
82672;BME280;72378;52.468;13.432;2024-03-25T10:22:03;100047.09;;;12.71;54.60
82672;BME280;72378;52.468;13.432;2024-03-25T10:24:37;100047.41;;;14.51;49.27
82672;BME280;72378;52.468;13.432;2024-03-25T10:27:02;100052.47;;;12.91;52.45
82672;BME280;72378;52.468;13.432;2024-03-25T10:29:28;100057.88;;;13.10;52.09
82672;BME280;72378;52.468;13.432;2024-03-25T10:31:58;100050.97;;;13.96;49.79
82672;BME280;72378;52.468;13.432;2024-03-25T10:34:24;100050.09;;;13.27;52.58
82672;BME280;72378;52.468;13.432;2024-03-25T10:36:49;100055.75;;;14.56;49.08
82672;BME280;72378;52.468;13.432;2024-03-25T10:39:17;100055.88;;;14.43;50.30
82672;BME280;72378;52.468;13.432;2024-03-25T10:41:46;100057.41;;;13.26;50.83
82672;BME280;72378;52.468;13.432;2024-03-25T10:44:12;100059.97;;;12.95;50.79
82672;BME280;72378;52.468;13.432;2024-03-25T10:46:38;100059.13;;;13.65;49.76
82672;BME280;72378;52.468;13.432;2024-03-25T10:49:13;100067.06;;;13.98;47.61
82672;BME280;72378;52.468;13.432;2024-03-25T10:51:42;100060.22;;;14.20;47.84
82672;BME280;72378;52.468;13.432;2024-03-25T10:54:10;100058.63;;;13.30;49.21
82672;BME280;72378;52.468;13.432;2024-03-25T10:56:38;100059.59;;;14.92;45.82
82672;BME280;72378;52.468;13.432;2024-03-25T10:59:05;100056.19;;;14.53;46.55
82672;BME280;72378;52.468;13.432;2024-03-25T11:01:31;100053.50;;;13.53;48.03
82672;BME280;72378;52.468;13.432;2024-03-25T11:03:57;100055.63;;;12.81;50.02
82672;BME280;72378;52.468;13.432;2024-03-25T11:06:23;100065.59;;;13.13;48.83
82672;BME280;72378;52.468;13.432;2024-03-25T11:08:55;100061.06;;;12.75;49.41
82672;BME280;72378;52.468;13.432;2024-03-25T11:11:21;100058.34;;;12.88;49.11
82672;BME280;72378;52.468;13.432;2024-03-25T11:13:48;100066.25;;;13.09;48.91
82672;BME280;72378;52.468;13.432;2024-03-25T11:16:14;100076.75;;;12.33;50.37
82672;BME280;72378;52.468;13.432;2024-03-25T11:18:39;100059.38;;;13.88;46.48
82672;BME280;72378;52.468;13.432;2024-03-25T11:21:06;100059.53;;;14.31;45.17
82672;BME280;72378;52.468;13.432;2024-03-25T11:23:38;100057.91;;;14.48;46.04
82672;BME280;72378;52.468;13.432;2024-03-25T11:26:04;100072.94;;;13.57;46.44
82672;BME280;72378;52.468;13.432;2024-03-25T11:28:29;100069.50;;;15.04;43.51
82672;BME280;72378;52.468;13.432;2024-03-25T11:30:56;100058.19;;;16.55;40.02
82672;BME280;72378;52.468;13.432;2024-03-25T11:33:22;100063.91;;;14.32;43.87
82672;BME280;72378;52.468;13.432;2024-03-25T11:35:48;100065.44;;;15.67;42.10
82672;BME280;72378;52.468;13.432;2024-03-25T11:38:14;100057.72;;;15.28;41.89
82672;BME280;72378;52.468;13.432;2024-03-25T11:40:41;100061.09;;;15.06;41.25
82672;BME280;72378;52.468;13.432;2024-03-25T11:43:07;100060.53;;;15.22;43.35
82672;BME280;72378;52.468;13.432;2024-03-25T11:45:33;100064.59;;;15.13;42.36
82672;BME280;72378;52.468;13.432;2024-03-25T11:48:00;100067.47;;;15.00;42.92
82672;BME280;72378;52.468;13.432;2024-03-25T11:50:25;100060.50;;;16.17;40.29
82672;BME280;72378;52.468;13.432;2024-03-25T11:52:51;100060.06;;;15.90;40.88
82672;BME280;72378;52.468;13.432;2024-03-25T11:55:17;100057.97;;;16.04;39.81
82672;BME280;72378;52.468;13.432;2024-03-25T11:57:42;100049.28;;;18.42;35.60
82672;BME280;72378;52.468;13.432;2024-03-25T12:00:09;100051.91;;;17.64;36.62
82672;BME280;72378;52.468;13.432;2024-03-25T12:02:34;100055.53;;;17.53;37.16
82672;BME280;72378;52.468;13.432;2024-03-25T12:05:02;100060.97;;;16.14;38.29
82672;BME280;72378;52.468;13.432;2024-03-25T12:07:27;100050.72;;;17.08;36.81
82672;BME280;72378;52.468;13.432;2024-03-25T12:09:53;100053.59;;;17.02;37.05
82672;BME280;72378;52.468;13.432;2024-03-25T12:12:37;100057.09;;;17.26;35.00
82672;BME280;72378;52.468;13.432;2024-03-25T12:15:03;100049.81;;;17.82;34.41
82672;BME280;72378;52.468;13.432;2024-03-25T12:17:30;100057.75;;;15.76;37.95
82672;BME280;72378;52.468;13.432;2024-03-25T12:20:02;100057.34;;;17.24;35.06
82672;BME280;72378;52.468;13.432;2024-03-25T12:22:30;100048.03;;;17.48;34.73
82672;BME280;72378;52.468;13.432;2024-03-25T12:24:57;100052.59;;;17.31;34.32
82672;BME280;72378;52.468;13.432;2024-03-25T12:27:23;100047.19;;;17.87;33.88
82672;BME280;72378;52.468;13.432;2024-03-25T12:29:57;100048.59;;;18.51;32.84
82672;BME280;72378;52.468;13.432;2024-03-25T12:32:30;100049.28;;;17.17;34.60
82672;BME280;72378;52.468;13.432;2024-03-25T12:34:57;100042.09;;;16.65;35.77
82672;BME280;72378;52.468;13.432;2024-03-25T12:37:25;100040.84;;;18.81;33.81
82672;BME280;72378;52.468;13.432;2024-03-25T12:39:51;100037.78;;;18.28;33.02
82672;BME280;72378;52.468;13.432;2024-03-25T12:42:17;100044.16;;;20.71;30.25
82672;BME280;72378;52.468;13.432;2024-03-25T12:44:42;100046.63;;;20.36;29.49